sensor_id;sensor_type;location;lat;lon;timestamp;P1;durP1;ratioP1;P2;durP2;ratioP2
34142;SDS011;20419;10.658;106.724;2023-05-10T00:00:38;16.73;;;11.30;;
34142;SDS011;20419;10.658;106.724;2023-05-10T00:03:05;13.77;;;10.32;;
34142;SDS011;20419;10.658;106.724;2023-05-10T00:05:32;15.75;;;10.60;;
34142;SDS011;20419;10.658;106.724;2023-05-10T00:07:59;15.20;;;10.45;;
34142;SDS011;20419;10.658;106.724;2023-05-10T00:10:26;18.65;;;11.75;;
34142;SDS011;20419;10.658;106.724;2023-05-10T00:12:52;15.30;;;10.05;;
34142;SDS011;20419;10.658;106.724;2023-05-10T00:15:19;14.20;;;10.43;;
34142;SDS011;20419;10.658;106.724;2023-05-10T00:17:46;14.50;;;9.90;;
34142;SDS011;20419;10.658;106.724;2023-05-10T00:20:13;17.52;;;10.43;;
34142;SDS011;20419;10.658;106.724;2023-05-10T00:22:40;17.15;;;10.75;;
34142;SDS011;20419;10.658;106.724;2023-05-10T00:25:07;16.67;;;9.57;;
34142;SDS011;20419;10.658;106.724;2023-05-10T00:27:34;16.48;;;10.18;;
34142;SDS011;20419;10.658;106.724;2023-05-10T00:30:01;17.05;;;10.50;;
34142;SDS011;20419;10.658;106.724;2023-05-10T00:32:28;12.93;;;9.60;;
34142;SDS011;20419;10.658;106.724;2023-05-10T00:34:55;16.83;;;10.45;;
34142;SDS011;20419;10.658;106.724;2023-05-10T00:37:22;15.93;;;10.20;;
34142;SDS011;20419;10.658;106.724;2023-05-10T00:39:48;13.82;;;9.70;;
34142;SDS011;20419;10.658;106.724;2023-05-10T00:42:15;15.52;;;10.02;;
34142;SDS011;20419;10.658;106.724;2023-05-10T00:44:42;12.95;;;9.57;;
34142;SDS011;20419;10.658;106.724;2023-05-10T00:47:09;13.77;;;9.77;;
34142;SDS011;20419;10.658;106.724;2023-05-10T00:49:37;13.17;;;9.37;;
34142;SDS011;20419;10.658;106.724;2023-05-10T00:52:04;13.75;;;9.40;;
34142;SDS011;20419;10.658;106.724;2023-05-10T00:54:31;14.02;;;9.85;;
34142;SDS011;20419;10.658;106.724;2023-05-10T00:56:58;12.63;;;9.90;;
34142;SDS011;20419;10.658;106.724;2023-05-10T00:59:24;14.20;;;9.95;;
34142;SDS011;20419;10.658;106.724;2023-05-10T01:01:51;14.52;;;10.35;;
34142;SDS011;20419;10.658;106.724;2023-05-10T01:04:18;14.70;;;10.18;;
34142;SDS011;20419;10.658;106.724;2023-05-10T01:06:47;14.65;;;10.00;;
34142;SDS011;20419;10.658;106.724;2023-05-10T01:09:13;11.82;;;8.68;;
34142;SDS011;20419;10.658;106.724;2023-05-10T01:11:40;13.45;;;9.98;;
34142;SDS011;20419;10.658;106.724;2023-05-10T01:14:07;13.85;;;9.32;;
34142;SDS011;20419;10.658;106.724;2023-05-10T01:16:38;12.88;;;9.48;;
34142;SDS011;20419;10.658;106.724;2023-05-10T01:19:06;13.07;;;9.40;;
34142;SDS011;20419;10.658;106.724;2023-05-10T01:22:41;14.23;;;9.60;;
34142;SDS011;20419;10.658;106.724;2023-05-10T01:29:49;14.13;;;9.18;;
34142;SDS011;20419;10.658;106.724;2023-05-10T01:37:57;10.55;;;8.73;;
34142;SDS011;20419;10.658;106.724;2023-05-10T01:40:37;12.50;;;9.68;;
34142;SDS011;20419;10.658;106.724;2023-05-10T01:43:08;14.13;;;9.30;;
34142;SDS011;20419;10.658;106.724;2023-05-10T01:45:39;13.10;;;8.35;;
34142;SDS011;20419;10.658;106.724;2023-05-10T01:48:09;12.25;;;9.27;;
34142;SDS011;20419;10.658;106.724;2023-05-10T01:50:42;11.00;;;9.10;;
34142;SDS011;20419;10.658;106.724;2023-05-10T01:53:10;12.95;;;9.68;;
34142;SDS011;20419;10.658;106.724;2023-05-10T01:55:47;10.90;;;8.80;;
34142;SDS011;20419;10.658;106.724;2023-05-10T01:58:20;12.25;;;8.98;;
34142;SDS011;20419;10.658;106.724;2023-05-10T02:00:47;12.90;;;9.07;;
34142;SDS011;20419;10.658;106.724;2023-05-10T02:03:14;10.75;;;8.80;;
34142;SDS011;20419;10.658;106.724;2023-05-10T02:05:42;11.43;;;9.00;;
34142;SDS011;20419;10.658;106.724;2023-05-10T02:08:10;12.30;;;8.45;;
34142;SDS011;20419;10.658;106.724;2023-05-10T02:10:37;12.85;;;9.20;;
34142;SDS011;20419;10.658;106.724;2023-05-10T02:13:05;10.73;;;8.23;;
34142;SDS011;20419;10.658;106.724;2023-05-10T02:15:33;11.53;;;8.90;;
34142;SDS011;20419;10.658;106.724;2023-05-10T02:18:01;11.55;;;9.25;;
34142;SDS011;20419;10.658;106.724;2023-05-10T02:20:28;10.77;;;8.40;;
34142;SDS011;20419;10.658;106.724;2023-05-10T02:22:56;11.38;;;8.93;;
34142;SDS011;20419;10.658;106.724;2023-05-10T02:25:23;10.27;;;7.68;;
34142;SDS011;20419;10.658;106.724;2023-05-10T02:27:52;10.40;;;8.73;;
34142;SDS011;20419;10.658;106.724;2023-05-10T02:30:20;9.82;;;8.45;;
34142;SDS011;20419;10.658;106.724;2023-05-10T02:32:48;10.17;;;8.07;;
34142;SDS011;20419;10.658;106.724;2023-05-10T02:35:15;10.52;;;8.77;;
34142;SDS011;20419;10.658;106.724;2023-05-10T02:37:42;10.95;;;8.20;;
34142;SDS011;20419;10.658;106.724;2023-05-10T02:40:10;9.30;;;7.43;;
34142;SDS011;20419;10.658;106.724;2023-05-10T02:42:37;10.50;;;7.20;;
34142;SDS011;20419;10.658;106.724;2023-05-10T02:45:10;9.82;;;7.72;;
34142;SDS011;20419;10.658;106.724;2023-05-10T02:47:38;9.73;;;7.95;;
34142;SDS011;20419;10.658;106.724;2023-05-10T02:50:05;11.95;;;8.80;;
34142;SDS011;20419;10.658;106.724;2023-05-10T02:52:46;10.43;;;6.90;;
34142;SDS011;20419;10.658;106.724;2023-05-10T02:55:14;11.50;;;7.90;;
34142;SDS011;20419;10.658;106.724;2023-05-10T02:57:58;11.32;;;8.05;;
34142;SDS011;20419;10.658;106.724;2023-05-10T03:00:25;9.52;;;7.25;;
34142;SDS011;20419;10.658;106.724;2023-05-10T03:02:52;11.45;;;7.82;;
34142;SDS011;20419;10.658;106.724;2023-05-10T03:05:19;10.05;;;7.80;;
34142;SDS011;20419;10.658;106.724;2023-05-10T03:07:46;10.35;;;7.40;;
34142;SDS011;20419;10.658;106.724;2023-05-10T03:10:13;10.32;;;8.32;;
34142;SDS011;20419;10.658;106.724;2023-05-10T03:12:57;11.65;;;7.97;;
34142;SDS011;20419;10.658;106.724;2023-05-10T03:18:15;10.30;;;7.72;;
34142;SDS011;20419;10.658;106.724;2023-05-10T03:20:43;10.75;;;8.10;;
34142;SDS011;20419;10.658;106.724;2023-05-10T03:23:12;10.20;;;7.80;;
34142;SDS011;20419;10.658;106.724;2023-05-10T03:25:39;9.90;;;7.03;;
34142;SDS011;20419;10.658;106.724;2023-05-10T03:28:06;12.13;;;7.45;;
34142;SDS011;20419;10.658;106.724;2023-05-10T03:30:33;10.00;;;7.25;;
34142;SDS011;20419;10.658;106.724;2023-05-10T03:33:04;11.30;;;8.05;;
34142;SDS011;20419;10.658;106.724;2023-05-10T03:35:31;9.90;;;7.40;;
34142;SDS011;20419;10.658;106.724;2023-05-10T03:37:58;9.10;;;6.70;;
34142;SDS011;20419;10.658;106.724;2023-05-10T03:40:26;9.30;;;7.93;;
34142;SDS011;20419;10.658;106.724;2023-05-10T03:42:57;10.80;;;7.65;;
34142;SDS011;20419;10.658;106.724;2023-05-10T03:45:24;10.25;;;7.68;;
34142;SDS011;20419;10.658;106.724;2023-05-10T03:47:51;8.38;;;7.13;;
34142;SDS011;20419;10.658;106.724;2023-05-10T03:50:18;8.55;;;7.28;;
34142;SDS011;20419;10.658;106.724;2023-05-10T03:52:45;9.45;;;7.85;;
34142;SDS011;20419;10.658;106.724;2023-05-10T03:55:12;9.18;;;7.30;;
34142;SDS011;20419;10.658;106.724;2023-05-10T03:57:38;9.52;;;7.30;;
34142;SDS011;20419;10.658;106.724;2023-05-10T04:00:05;10.07;;;8.30;;
34142;SDS011;20419;10.658;106.724;2023-05-10T04:02:32;10.07;;;7.60;;
34142;SDS011;20419;10.658;106.724;2023-05-10T04:04:59;9.73;;;7.60;;
34142;SDS011;20419;10.658;106.724;2023-05-10T04:07:26;8.70;;;7.05;;
34142;SDS011;20419;10.658;106.724;2023-05-10T04:09:53;9.95;;;7.63;;
34142;SDS011;20419;10.658;106.724;2023-05-10T04:12:19;10.38;;;7.75;;
34142;SDS011;20419;10.658;106.724;2023-05-10T04:14:46;9.95;;;7.95;;
34142;SDS011;20419;10.658;106.724;2023-05-10T04:17:13;8.43;;;7.07;;
34142;SDS011;20419;10.658;106.724;2023-05-10T04:19:40;9.25;;;7.43;;
34142;SDS011;20419;10.658;106.724;2023-05-10T04:22:06;9.35;;;7.68;;
34142;SDS011;20419;10.658;106.724;2023-05-10T04:24:33;9.90;;;7.68;;
34142;SDS011;20419;10.658;106.724;2023-05-10T04:27:00;10.15;;;7.30;;
34142;SDS011;20419;10.658;106.724;2023-05-10T04:29:27;9.00;;;6.72;;
34142;SDS011;20419;10.658;106.724;2023-05-10T04:31:54;10.45;;;7.10;;
34142;SDS011;20419;10.658;106.724;2023-05-10T04:34:21;8.82;;;7.15;;
34142;SDS011;20419;10.658;106.724;2023-05-10T04:36:48;7.82;;;6.78;;
34142;SDS011;20419;10.658;106.724;2023-05-10T04:39:15;9.23;;;7.03;;
34142;SDS011;20419;10.658;106.724;2023-05-10T04:41:42;9.35;;;7.63;;
34142;SDS011;20419;10.658;106.724;2023-05-10T04:44:09;9.55;;;7.13;;
34142;SDS011;20419;10.658;106.724;2023-05-10T04:46:35;9.10;;;6.80;;
34142;SDS011;20419;10.658;106.724;2023-05-10T04:49:02;9.15;;;7.30;;
34142;SDS011;20419;10.658;106.724;2023-05-10T04:51:29;9.25;;;6.72;;
34142;SDS011;20419;10.658;106.724;2023-05-10T04:53:56;8.48;;;6.93;;
34142;SDS011;20419;10.658;106.724;2023-05-10T04:56:23;9.70;;;7.40;;
34142;SDS011;20419;10.658;106.724;2023-05-10T04:58:50;10.38;;;7.10;;
34142;SDS011;20419;10.658;106.724;2023-05-10T05:01:16;8.48;;;6.65;;
34142;SDS011;20419;10.658;106.724;2023-05-10T05:03:43;9.10;;;6.60;;
34142;SDS011;20419;10.658;106.724;2023-05-10T05:06:10;8.35;;;6.47;;
34142;SDS011;20419;10.658;106.724;2023-05-10T05:08:37;9.00;;;6.68;;
34142;SDS011;20419;10.658;106.724;2023-05-10T05:11:03;8.82;;;6.25;;
34142;SDS011;20419;10.658;106.724;2023-05-10T05:13:30;7.97;;;7.00;;
34142;SDS011;20419;10.658;106.724;2023-05-10T05:15:57;7.45;;;5.95;;
34142;SDS011;20419;10.658;106.724;2023-05-10T05:18:26;8.55;;;6.05;;
34142;SDS011;20419;10.658;106.724;2023-05-10T05:20:53;8.98;;;6.43;;
34142;SDS011;20419;10.658;106.724;2023-05-10T05:23:20;7.47;;;6.07;;
34142;SDS011;20419;10.658;106.724;2023-05-10T05:25:53;7.13;;;6.18;;
34142;SDS011;20419;10.658;106.724;2023-05-10T05:28:20;8.02;;;6.05;;
34142;SDS011;20419;10.658;106.724;2023-05-10T05:30:47;7.68;;;6.45;;
34142;SDS011;20419;10.658;106.724;2023-05-10T05:33:14;8.07;;;5.88;;
34142;SDS011;20419;10.658;106.724;2023-05-10T05:35:41;7.00;;;5.82;;
34142;SDS011;20419;10.658;106.724;2023-05-10T05:38:16;7.03;;;6.10;;
34142;SDS011;20419;10.658;106.724;2023-05-10T05:40:43;8.82;;;6.35;;
34142;SDS011;20419;10.658;106.724;2023-05-10T05:43:10;7.45;;;5.68;;
34142;SDS011;20419;10.658;106.724;2023-05-10T05:45:37;7.80;;;6.10;;
34142;SDS011;20419;10.658;106.724;2023-05-10T05:48:04;7.35;;;5.85;;
34142;SDS011;20419;10.658;106.724;2023-05-10T05:50:31;6.50;;;5.40;;
34142;SDS011;20419;10.658;106.724;2023-05-10T05:52:58;8.55;;;5.72;;
34142;SDS011;20419;10.658;106.724;2023-05-10T05:55:24;7.43;;;5.65;;
34142;SDS011;20419;10.658;106.724;2023-05-10T05:57:51;7.55;;;5.38;;
34142;SDS011;20419;10.658;106.724;2023-05-10T06:00:19;7.05;;;5.68;;
34142;SDS011;20419;10.658;106.724;2023-05-10T06:02:46;6.55;;;5.35;;
34142;SDS011;20419;10.658;106.724;2023-05-10T06:05:13;7.45;;;5.43;;
34142;SDS011;20419;10.658;106.724;2023-05-10T06:07:40;6.05;;;4.68;;
34142;SDS011;20419;10.658;106.724;2023-05-10T06:10:09;6.53;;;5.30;;
34142;SDS011;20419;10.658;106.724;2023-05-10T06:12:36;6.45;;;5.45;;
34142;SDS011;20419;10.658;106.724;2023-05-10T06:15:03;6.88;;;5.40;;
34142;SDS011;20419;10.658;106.724;2023-05-10T06:17:31;6.05;;;4.88;;
34142;SDS011;20419;10.658;106.724;2023-05-10T06:19:58;6.78;;;5.50;;
34142;SDS011;20419;10.658;106.724;2023-05-10T06:22:24;6.80;;;5.40;;
34142;SDS011;20419;10.658;106.724;2023-05-10T06:24:52;7.03;;;5.10;;
34142;SDS011;20419;10.658;106.724;2023-05-10T06:27:19;7.88;;;5.78;;
34142;SDS011;20419;10.658;106.724;2023-05-10T06:29:46;8.45;;;4.93;;
34142;SDS011;20419;10.658;106.724;2023-05-10T06:32:12;6.43;;;5.13;;
34142;SDS011;20419;10.658;106.724;2023-05-10T06:34:39;6.97;;;4.90;;
34142;SDS011;20419;10.658;106.724;2023-05-10T06:37:06;7.50;;;5.80;;
34142;SDS011;20419;10.658;106.724;2023-05-10T06:39:33;6.80;;;5.15;;
34142;SDS011;20419;10.658;106.724;2023-05-10T06:41:59;6.40;;;5.47;;
34142;SDS011;20419;10.658;106.724;2023-05-10T06:44:27;7.18;;;4.97;;
34142;SDS011;20419;10.658;106.724;2023-05-10T06:46:53;7.50;;;5.63;;
34142;SDS011;20419;10.658;106.724;2023-05-10T06:49:21;6.03;;;5.07;;
34142;SDS011;20419;10.658;106.724;2023-05-10T06:51:47;6.03;;;4.93;;
34142;SDS011;20419;10.658;106.724;2023-05-10T06:54:14;6.68;;;5.50;;
34142;SDS011;20419;10.658;106.724;2023-05-10T06:56:41;6.88;;;4.75;;
34142;SDS011;20419;10.658;106.724;2023-05-10T06:59:08;6.13;;;5.00;;
34142;SDS011;20419;10.658;106.724;2023-05-10T07:01:35;5.75;;;4.57;;
34142;SDS011;20419;10.658;106.724;2023-05-10T07:04:02;5.60;;;4.40;;
34142;SDS011;20419;10.658;106.724;2023-05-10T07:06:29;6.40;;;5.13;;
34142;SDS011;20419;10.658;106.724;2023-05-10T07:08:56;6.22;;;4.97;;
34142;SDS011;20419;10.658;106.724;2023-05-10T07:11:22;5.30;;;4.15;;
34142;SDS011;20419;10.658;106.724;2023-05-10T07:13:49;6.75;;;5.03;;
34142;SDS011;20419;10.658;106.724;2023-05-10T07:16:16;6.18;;;4.72;;
34142;SDS011;20419;10.658;106.724;2023-05-10T07:18:43;6.78;;;4.60;;
34142;SDS011;20419;10.658;106.724;2023-05-10T07:21:09;7.35;;;4.88;;
34142;SDS011;20419;10.658;106.724;2023-05-10T07:23:36;6.95;;;4.80;;
34142;SDS011;20419;10.658;106.724;2023-05-10T07:26:03;5.68;;;4.30;;
34142;SDS011;20419;10.658;106.724;2023-05-10T07:28:30;6.60;;;4.80;;
34142;SDS011;20419;10.658;106.724;2023-05-10T07:30:57;6.72;;;4.80;;
34142;SDS011;20419;10.658;106.724;2023-05-10T07:33:23;5.93;;;4.35;;
34142;SDS011;20419;10.658;106.724;2023-05-10T07:35:50;6.68;;;4.65;;
34142;SDS011;20419;10.658;106.724;2023-05-10T07:38:17;6.18;;;4.53;;
34142;SDS011;20419;10.658;106.724;2023-05-10T07:40:43;6.07;;;4.47;;
34142;SDS011;20419;10.658;106.724;2023-05-10T07:43:10;6.20;;;4.72;;
34142;SDS011;20419;10.658;106.724;2023-05-10T07:45:37;6.50;;;4.93;;
34142;SDS011;20419;10.658;106.724;2023-05-10T07:48:04;7.65;;;4.47;;
34142;SDS011;20419;10.658;106.724;2023-05-10T07:50:30;5.45;;;4.10;;
34142;SDS011;20419;10.658;106.724;2023-05-10T07:52:57;5.78;;;4.45;;
34142;SDS011;20419;10.658;106.724;2023-05-10T07:55:24;6.20;;;4.63;;
34142;SDS011;20419;10.658;106.724;2023-05-10T07:57:51;6.13;;;4.60;;
34142;SDS011;20419;10.658;106.724;2023-05-10T08:00:18;6.40;;;5.05;;
34142;SDS011;20419;10.658;106.724;2023-05-10T08:02:46;6.07;;;4.75;;
34142;SDS011;20419;10.658;106.724;2023-05-10T08:05:13;6.10;;;4.85;;
34142;SDS011;20419;10.658;106.724;2023-05-10T08:07:40;5.90;;;4.72;;
34142;SDS011;20419;10.658;106.724;2023-05-10T08:10:09;8.57;;;5.07;;
34142;SDS011;20419;10.658;106.724;2023-05-10T08:12:37;6.63;;;5.22;;
34142;SDS011;20419;10.658;106.724;2023-05-10T08:15:04;5.50;;;4.30;;
34142;SDS011;20419;10.658;106.724;2023-05-10T08:17:30;5.05;;;4.22;;
34142;SDS011;20419;10.658;106.724;2023-05-10T08:19:57;6.30;;;5.00;;
34142;SDS011;20419;10.658;106.724;2023-05-10T08:22:24;6.80;;;4.68;;
34142;SDS011;20419;10.658;106.724;2023-05-10T08:24:51;6.07;;;4.60;;
34142;SDS011;20419;10.658;106.724;2023-05-10T08:27:18;5.50;;;4.10;;
34142;SDS011;20419;10.658;106.724;2023-05-10T08:29:44;5.55;;;4.25;;
34142;SDS011;20419;10.658;106.724;2023-05-10T08:32:11;6.40;;;4.65;;
34142;SDS011;20419;10.658;106.724;2023-05-10T08:34:38;5.30;;;4.45;;
34142;SDS011;20419;10.658;106.724;2023-05-10T08:37:05;6.00;;;4.25;;
34142;SDS011;20419;10.658;106.724;2023-05-10T08:39:34;5.63;;;4.45;;
34142;SDS011;20419;10.658;106.724;2023-05-10T08:42:01;6.22;;;4.50;;
34142;SDS011;20419;10.658;106.724;2023-05-10T08:44:28;4.87;;;3.73;;
34142;SDS011;20419;10.658;106.724;2023-05-10T08:46:56;5.82;;;4.20;;
34142;SDS011;20419;10.658;106.724;2023-05-10T08:49:23;5.38;;;4.50;;
34142;SDS011;20419;10.658;106.724;2023-05-10T08:51:51;5.07;;;4.00;;
34142;SDS011;20419;10.658;106.724;2023-05-10T08:54:18;5.80;;;4.07;;
34142;SDS011;20419;10.658;106.724;2023-05-10T08:56:45;5.30;;;4.05;;
34142;SDS011;20419;10.658;106.724;2023-05-10T08:59:12;6.28;;;4.30;;
34142;SDS011;20419;10.658;106.724;2023-05-10T09:01:39;4.55;;;3.75;;
34142;SDS011;20419;10.658;106.724;2023-05-10T09:04:06;5.10;;;3.78;;
34142;SDS011;20419;10.658;106.724;2023-05-10T09:06:33;5.22;;;4.18;;
34142;SDS011;20419;10.658;106.724;2023-05-10T09:09:01;4.88;;;3.85;;
34142;SDS011;20419;10.658;106.724;2023-05-10T09:11:28;4.90;;;3.88;;
34142;SDS011;20419;10.658;106.724;2023-05-10T09:13:55;4.97;;;3.80;;
34142;SDS011;20419;10.658;106.724;2023-05-10T09:16:22;5.45;;;4.32;;
34142;SDS011;20419;10.658;106.724;2023-05-10T09:18:49;4.80;;;3.95;;
34142;SDS011;20419;10.658;106.724;2023-05-10T09:21:16;4.78;;;4.00;;
34142;SDS011;20419;10.658;106.724;2023-05-10T09:23:46;5.70;;;4.45;;
34142;SDS011;20419;10.658;106.724;2023-05-10T09:26:23;5.63;;;3.75;;
34142;SDS011;20419;10.658;106.724;2023-05-10T09:28:51;5.82;;;4.15;;
34142;SDS011;20419;10.658;106.724;2023-05-10T09:31:18;5.00;;;3.80;;
34142;SDS011;20419;10.658;106.724;2023-05-10T09:33:49;5.80;;;4.20;;
34142;SDS011;20419;10.658;106.724;2023-05-10T09:36:16;5.25;;;4.05;;
34142;SDS011;20419;10.658;106.724;2023-05-10T09:41:23;5.13;;;4.03;;
34142;SDS011;20419;10.658;106.724;2023-05-10T09:43:51;4.90;;;3.65;;
34142;SDS011;20419;10.658;106.724;2023-05-10T09:46:22;4.97;;;3.80;;
34142;SDS011;20419;10.658;106.724;2023-05-10T09:48:55;5.00;;;4.15;;
34142;SDS011;20419;10.658;106.724;2023-05-10T09:51:23;4.68;;;3.80;;
34142;SDS011;20419;10.658;106.724;2023-05-10T09:56:49;4.93;;;3.60;;
34142;SDS011;20419;10.658;106.724;2023-05-10T09:59:18;5.00;;;3.75;;
34142;SDS011;20419;10.658;106.724;2023-05-10T10:01:49;5.22;;;3.80;;
34142;SDS011;20419;10.658;106.724;2023-05-10T10:04:16;4.90;;;3.97;;
34142;SDS011;20419;10.658;106.724;2023-05-10T10:06:43;4.90;;;3.63;;
34142;SDS011;20419;10.658;106.724;2023-05-10T10:09:10;5.05;;;3.75;;
34142;SDS011;20419;10.658;106.724;2023-05-10T10:11:37;4.22;;;3.67;;
34142;SDS011;20419;10.658;106.724;2023-05-10T10:14:08;4.55;;;3.67;;
34142;SDS011;20419;10.658;106.724;2023-05-10T10:16:53;4.72;;;3.55;;
34142;SDS011;20419;10.658;106.724;2023-05-10T10:19:20;4.43;;;3.40;;
34142;SDS011;20419;10.658;106.724;2023-05-10T10:21:51;4.50;;;3.50;;
34142;SDS011;20419;10.658;106.724;2023-05-10T10:24:18;4.35;;;3.35;;
34142;SDS011;20419;10.658;106.724;2023-05-10T10:26:45;5.40;;;3.70;;
34142;SDS011;20419;10.658;106.724;2023-05-10T10:31:55;4.85;;;3.80;;
34142;SDS011;20419;10.658;106.724;2023-05-10T10:34:29;5.25;;;3.92;;
34142;SDS011;20419;10.658;106.724;2023-05-10T10:36:57;4.75;;;4.00;;
34142;SDS011;20419;10.658;106.724;2023-05-10T10:39:24;4.10;;;3.28;;
34142;SDS011;20419;10.658;106.724;2023-05-10T10:41:52;4.30;;;3.30;;
34142;SDS011;20419;10.658;106.724;2023-05-10T10:44:23;5.38;;;3.53;;
34142;SDS011;20419;10.658;106.724;2023-05-10T10:47:06;4.50;;;3.60;;
34142;SDS011;20419;10.658;106.724;2023-05-10T10:52:31;5.05;;;3.63;;
34142;SDS011;20419;10.658;106.724;2023-05-10T10:55:07;5.13;;;3.85;;
34142;SDS011;20419;10.658;106.724;2023-05-10T11:00:20;4.40;;;3.60;;
34142;SDS011;20419;10.658;106.724;2023-05-10T11:02:49;4.80;;;3.88;;
34142;SDS011;20419;10.658;106.724;2023-05-10T11:05:23;4.75;;;3.63;;
34142;SDS011;20419;10.658;106.724;2023-05-10T11:10:20;4.80;;;3.60;;
34142;SDS011;20419;10.658;106.724;2023-05-10T11:13:06;4.47;;;3.60;;
34142;SDS011;20419;10.658;106.724;2023-05-10T11:15:37;4.93;;;3.90;;
34142;SDS011;20419;10.658;106.724;2023-05-10T11:23:31;5.07;;;3.72;;
34142;SDS011;20419;10.658;106.724;2023-05-10T11:25:59;5.40;;;3.67;;
34142;SDS011;20419;10.658;106.724;2023-05-10T11:28:30;4.68;;;3.38;;
34142;SDS011;20419;10.658;106.724;2023-05-10T11:31:06;4.75;;;3.30;;
34142;SDS011;20419;10.658;106.724;2023-05-10T11:33:42;4.55;;;3.38;;
34142;SDS011;20419;10.658;106.724;2023-05-10T11:36:14;4.88;;;3.72;;
34142;SDS011;20419;10.658;106.724;2023-05-10T11:38:41;4.38;;;3.05;;
34142;SDS011;20419;10.658;106.724;2023-05-10T11:41:08;4.93;;;3.53;;
34142;SDS011;20419;10.658;106.724;2023-05-10T11:43:41;4.75;;;3.60;;
34142;SDS011;20419;10.658;106.724;2023-05-10T11:46:09;4.05;;;3.30;;
34142;SDS011;20419;10.658;106.724;2023-05-10T11:48:38;4.60;;;3.30;;
34142;SDS011;20419;10.658;106.724;2023-05-10T11:53:34;4.72;;;3.60;;
34142;SDS011;20419;10.658;106.724;2023-05-10T11:56:05;4.75;;;3.47;;
34142;SDS011;20419;10.658;106.724;2023-05-10T11:58:32;4.90;;;3.47;;
34142;SDS011;20419;10.658;106.724;2023-05-10T12:00:59;5.03;;;3.58;;
34142;SDS011;20419;10.658;106.724;2023-05-10T12:03:27;4.63;;;3.38;;
34142;SDS011;20419;10.658;106.724;2023-05-10T12:05:54;4.80;;;3.20;;
34142;SDS011;20419;10.658;106.724;2023-05-10T12:08:22;4.65;;;3.63;;
34142;SDS011;20419;10.658;106.724;2023-05-10T12:10:49;5.03;;;3.53;;
34142;SDS011;20419;10.658;106.724;2023-05-10T12:13:16;4.72;;;3.05;;
34142;SDS011;20419;10.658;106.724;2023-05-10T12:15:43;4.88;;;3.60;;
34142;SDS011;20419;10.658;106.724;2023-05-10T12:18:13;4.75;;;3.65;;
34142;SDS011;20419;10.658;106.724;2023-05-10T12:20:40;5.07;;;3.40;;
34142;SDS011;20419;10.658;106.724;2023-05-10T12:23:10;4.80;;;3.42;;
34142;SDS011;20419;10.658;106.724;2023-05-10T12:25:41;4.95;;;3.58;;
34142;SDS011;20419;10.658;106.724;2023-05-10T12:28:10;4.22;;;3.17;;
34142;SDS011;20419;10.658;106.724;2023-05-10T12:30:37;4.18;;;3.10;;
34142;SDS011;20419;10.658;106.724;2023-05-10T12:33:08;4.47;;;3.20;;
34142;SDS011;20419;10.658;106.724;2023-05-10T12:35:45;4.65;;;3.33;;
34142;SDS011;20419;10.658;106.724;2023-05-10T12:38:28;4.50;;;3.50;;
34142;SDS011;20419;10.658;106.724;2023-05-10T12:40:56;4.45;;;3.13;;
34142;SDS011;20419;10.658;106.724;2023-05-10T12:43:24;4.57;;;3.42;;
34142;SDS011;20419;10.658;106.724;2023-05-10T12:45:51;4.90;;;3.43;;
34142;SDS011;20419;10.658;106.724;2023-05-10T12:48:18;4.68;;;3.25;;
34142;SDS011;20419;10.658;106.724;2023-05-10T12:50:48;3.80;;;2.88;;
34142;SDS011;20419;10.658;106.724;2023-05-10T12:53:15;4.47;;;3.22;;
34142;SDS011;20419;10.658;106.724;2023-05-10T12:55:42;4.38;;;3.05;;
34142;SDS011;20419;10.658;106.724;2023-05-10T12:58:10;4.40;;;3.40;;
34142;SDS011;20419;10.658;106.724;2023-05-10T13:00:37;4.88;;;3.50;;
34142;SDS011;20419;10.658;106.724;2023-05-10T13:03:04;4.18;;;3.20;;
34142;SDS011;20419;10.658;106.724;2023-05-10T13:05:32;5.78;;;3.70;;
34142;SDS011;20419;10.658;106.724;2023-05-10T13:07:59;4.30;;;3.15;;
34142;SDS011;20419;10.658;106.724;2023-05-10T13:10:25;8.15;;;3.80;;
34142;SDS011;20419;10.658;106.724;2023-05-10T13:12:52;5.20;;;3.83;;
34142;SDS011;20419;10.658;106.724;2023-05-10T13:15:19;4.43;;;3.30;;
34142;SDS011;20419;10.658;106.724;2023-05-10T13:17:46;5.97;;;3.72;;
34142;SDS011;20419;10.658;106.724;2023-05-10T13:20:13;4.25;;;3.38;;
34142;SDS011;20419;10.658;106.724;2023-05-10T13:22:40;4.80;;;3.47;;
34142;SDS011;20419;10.658;106.724;2023-05-10T13:25:07;4.50;;;3.70;;
34142;SDS011;20419;10.658;106.724;2023-05-10T13:27:34;5.40;;;4.13;;
34142;SDS011;20419;10.658;106.724;2023-05-10T13:30:01;5.93;;;3.88;;
34142;SDS011;20419;10.658;106.724;2023-05-10T13:32:29;5.28;;;3.85;;
34142;SDS011;20419;10.658;106.724;2023-05-10T13:34:56;5.65;;;3.85;;
34142;SDS011;20419;10.658;106.724;2023-05-10T13:37:23;4.97;;;3.53;;
34142;SDS011;20419;10.658;106.724;2023-05-10T13:39:50;4.35;;;3.50;;
34142;SDS011;20419;10.658;106.724;2023-05-10T13:42:17;5.00;;;3.65;;
34142;SDS011;20419;10.658;106.724;2023-05-10T13:44:44;5.15;;;3.78;;
34142;SDS011;20419;10.658;106.724;2023-05-10T13:47:10;5.13;;;3.30;;
34142;SDS011;20419;10.658;106.724;2023-05-10T13:49:37;4.93;;;3.75;;
34142;SDS011;20419;10.658;106.724;2023-05-10T13:52:04;4.45;;;3.30;;
34142;SDS011;20419;10.658;106.724;2023-05-10T13:54:41;5.13;;;3.97;;
34142;SDS011;20419;10.658;106.724;2023-05-10T13:57:07;5.00;;;3.80;;
34142;SDS011;20419;10.658;106.724;2023-05-10T13:59:34;4.97;;;3.60;;
34142;SDS011;20419;10.658;106.724;2023-05-10T14:02:01;5.05;;;3.75;;
34142;SDS011;20419;10.658;106.724;2023-05-10T14:04:28;4.97;;;3.72;;
34142;SDS011;20419;10.658;106.724;2023-05-10T14:06:55;4.80;;;3.97;;
34142;SDS011;20419;10.658;106.724;2023-05-10T14:09:27;4.50;;;3.40;;
34142;SDS011;20419;10.658;106.724;2023-05-10T14:11:57;5.45;;;3.75;;
34142;SDS011;20419;10.658;106.724;2023-05-10T14:14:24;4.95;;;3.80;;
34142;SDS011;20419;10.658;106.724;2023-05-10T14:16:51;4.55;;;3.67;;
34142;SDS011;20419;10.658;106.724;2023-05-10T14:19:18;5.28;;;3.97;;
34142;SDS011;20419;10.658;106.724;2023-05-10T14:21:44;5.18;;;3.90;;
34142;SDS011;20419;10.658;106.724;2023-05-10T14:24:11;4.88;;;3.72;;
34142;SDS011;20419;10.658;106.724;2023-05-10T14:26:41;5.75;;;4.07;;
34142;SDS011;20419;10.658;106.724;2023-05-10T14:29:08;5.45;;;4.03;;
34142;SDS011;20419;10.658;106.724;2023-05-10T14:31:35;4.40;;;3.28;;
34142;SDS011;20419;10.658;106.724;2023-05-10T14:34:02;5.07;;;3.92;;
34142;SDS011;20419;10.658;106.724;2023-05-10T14:36:29;5.25;;;3.95;;
34142;SDS011;20419;10.658;106.724;2023-05-10T14:38:57;4.40;;;3.60;;
34142;SDS011;20419;10.658;106.724;2023-05-10T14:41:23;4.93;;;3.45;;
34142;SDS011;20419;10.658;106.724;2023-05-10T14:43:50;5.15;;;3.30;;
34142;SDS011;20419;10.658;106.724;2023-05-10T14:46:17;5.20;;;3.40;;
34142;SDS011;20419;10.658;106.724;2023-05-10T14:48:45;4.55;;;3.47;;
34142;SDS011;20419;10.658;106.724;2023-05-10T14:51:11;3.97;;;3.22;;
34142;SDS011;20419;10.658;106.724;2023-05-10T14:53:38;4.07;;;3.03;;
34142;SDS011;20419;10.658;106.724;2023-05-10T14:56:05;4.57;;;3.20;;
34142;SDS011;20419;10.658;106.724;2023-05-10T14:58:32;4.10;;;3.33;;
34142;SDS011;20419;10.658;106.724;2023-05-10T15:00:59;4.03;;;3.20;;